sensor_id;sensor_type;location;lat;lon;timestamp;P1;durP1;ratioP1;P2;durP2;ratioP2
78322;SDS011;67583;50.616;-3.404;2024-03-08T00:02:24;64.85;;;32.60;;
78322;SDS011;67583;50.616;-3.404;2024-03-08T00:07:15;68.60;;;32.95;;
78322;SDS011;67583;50.616;-3.404;2024-03-08T00:12:06;73.15;;;34.60;;
78322;SDS011;67583;50.616;-3.404;2024-03-08T00:16:56;70.15;;;34.58;;
78322;SDS011;67583;50.616;-3.404;2024-03-08T00:21:47;73.27;;;35.77;;
78322;SDS011;67583;50.616;-3.404;2024-03-08T00:26:38;75.82;;;37.65;;
78322;SDS011;67583;50.616;-3.404;2024-03-08T00:31:29;66.05;;;31.05;;
78322;SDS011;67583;50.616;-3.404;2024-03-08T00:33:57;77.43;;;37.35;;
78322;SDS011;67583;50.616;-3.404;2024-03-08T00:36:22;87.53;;;43.42;;
78322;SDS011;67583;50.616;-3.404;2024-03-08T00:41:13;79.60;;;38.80;;
78322;SDS011;67583;50.616;-3.404;2024-03-08T00:46:04;80.50;;;38.07;;
78322;SDS011;67583;50.616;-3.404;2024-03-08T00:50:56;69.18;;;34.65;;
78322;SDS011;67583;50.616;-3.404;2024-03-08T00:53:21;94.30;;;43.60;;
78322;SDS011;67583;50.616;-3.404;2024-03-08T00:58:13;85.80;;;40.83;;
78322;SDS011;67583;50.616;-3.404;2024-03-08T01:03:06;68.88;;;33.58;;
78322;SDS011;67583;50.616;-3.404;2024-03-08T01:05:32;75.78;;;36.55;;
78322;SDS011;67583;50.616;-3.404;2024-03-08T01:10:22;74.37;;;39.87;;
78322;SDS011;67583;50.616;-3.404;2024-03-08T01:15:14;90.15;;;42.15;;
78322;SDS011;67583;50.616;-3.404;2024-03-08T01:17:40;72.72;;;37.13;;
78322;SDS011;67583;50.616;-3.404;2024-03-08T01:22:32;71.35;;;36.38;;
78322;SDS011;67583;50.616;-3.404;2024-03-08T01:24:57;69.05;;;35.15;;
78322;SDS011;67583;50.616;-3.404;2024-03-08T01:29:49;68.55;;;34.85;;
78322;SDS011;67583;50.616;-3.404;2024-03-08T01:32:15;76.78;;;36.95;;
78322;SDS011;67583;50.616;-3.404;2024-03-08T01:37:06;72.40;;;36.00;;
78322;SDS011;67583;50.616;-3.404;2024-03-08T01:41:57;72.10;;;35.83;;
78322;SDS011;67583;50.616;-3.404;2024-03-08T01:46:48;78.03;;;36.13;;
78322;SDS011;67583;50.616;-3.404;2024-03-08T01:49:16;74.32;;;37.55;;
78322;SDS011;67583;50.616;-3.404;2024-03-08T01:51:43;74.57;;;36.75;;
78322;SDS011;67583;50.616;-3.404;2024-03-08T01:56:35;71.90;;;35.55;;
78322;SDS011;67583;50.616;-3.404;2024-03-08T01:59:00;71.28;;;34.33;;
78322;SDS011;67583;50.616;-3.404;2024-03-08T02:01:26;77.82;;;36.90;;
78322;SDS011;67583;50.616;-3.404;2024-03-08T02:03:52;63.38;;;33.55;;
78322;SDS011;67583;50.616;-3.404;2024-03-08T02:08:43;67.80;;;36.40;;
78322;SDS011;67583;50.616;-3.404;2024-03-08T02:11:09;81.18;;;39.67;;
78322;SDS011;67583;50.616;-3.404;2024-03-08T02:16:00;80.20;;;37.57;;
78322;SDS011;67583;50.616;-3.404;2024-03-08T02:23:20;75.05;;;35.78;;
78322;SDS011;67583;50.616;-3.404;2024-03-08T02:25:46;68.88;;;36.55;;
78322;SDS011;67583;50.616;-3.404;2024-03-08T02:28:12;76.80;;;41.30;;
78322;SDS011;67583;50.616;-3.404;2024-03-08T02:30:38;75.82;;;39.15;;
78322;SDS011;67583;50.616;-3.404;2024-03-08T02:33:06;77.82;;;39.03;;
78322;SDS011;67583;50.616;-3.404;2024-03-08T02:35:34;73.90;;;37.78;;
78322;SDS011;67583;50.616;-3.404;2024-03-08T02:38:00;75.47;;;36.60;;
78322;SDS011;67583;50.616;-3.404;2024-03-08T02:40:26;70.38;;;36.97;;
78322;SDS011;67583;50.616;-3.404;2024-03-08T02:42:51;69.80;;;35.95;;
78322;SDS011;67583;50.616;-3.404;2024-03-08T02:47:42;77.43;;;38.17;;
78322;SDS011;67583;50.616;-3.404;2024-03-08T02:50:08;77.13;;;38.38;;
78322;SDS011;67583;50.616;-3.404;2024-03-08T02:55:00;76.13;;;37.88;;
78322;SDS011;67583;50.616;-3.404;2024-03-08T02:57:26;77.25;;;37.78;;
78322;SDS011;67583;50.616;-3.404;2024-03-08T02:59:53;73.82;;;37.20;;
78322;SDS011;67583;50.616;-3.404;2024-03-08T03:02:18;73.35;;;37.45;;
78322;SDS011;67583;50.616;-3.404;2024-03-08T03:04:44;76.85;;;38.38;;
78322;SDS011;67583;50.616;-3.404;2024-03-08T03:07:09;79.10;;;39.13;;
78322;SDS011;67583;50.616;-3.404;2024-03-08T03:09:35;76.85;;;40.58;;
78322;SDS011;67583;50.616;-3.404;2024-03-08T03:12:00;79.03;;;41.35;;
78322;SDS011;67583;50.616;-3.404;2024-03-08T03:14:25;75.72;;;35.65;;
78322;SDS011;67583;50.616;-3.404;2024-03-08T03:16:54;78.65;;;39.50;;
78322;SDS011;67583;50.616;-3.404;2024-03-08T03:19:19;71.93;;;37.00;;
78322;SDS011;67583;50.616;-3.404;2024-03-08T03:24:11;71.68;;;36.25;;
78322;SDS011;67583;50.616;-3.404;2024-03-08T03:26:37;82.53;;;37.65;;
78322;SDS011;67583;50.616;-3.404;2024-03-08T03:29:04;71.65;;;36.60;;
78322;SDS011;67583;50.616;-3.404;2024-03-08T03:31:31;80.00;;;39.65;;
78322;SDS011;67583;50.616;-3.404;2024-03-08T03:36:26;77.25;;;37.53;;
78322;SDS011;67583;50.616;-3.404;2024-03-08T03:38:53;72.88;;;36.58;;
78322;SDS011;67583;50.616;-3.404;2024-03-08T03:41:29;76.82;;;37.03;;
78322;SDS011;67583;50.616;-3.404;2024-03-08T03:43:55;76.03;;;38.67;;
78322;SDS011;67583;50.616;-3.404;2024-03-08T03:46:20;77.10;;;36.72;;
78322;SDS011;67583;50.616;-3.404;2024-03-08T03:51:11;71.72;;;32.80;;
78322;SDS011;67583;50.616;-3.404;2024-03-08T03:53:37;72.68;;;35.42;;
78322;SDS011;67583;50.616;-3.404;2024-03-08T03:56:02;80.97;;;38.80;;
78322;SDS011;67583;50.616;-3.404;2024-03-08T03:58:31;72.50;;;38.10;;
78322;SDS011;67583;50.616;-3.404;2024-03-08T04:00:57;84.55;;;41.25;;
78322;SDS011;67583;50.616;-3.404;2024-03-08T04:03:22;73.15;;;37.78;;
78322;SDS011;67583;50.616;-3.404;2024-03-08T04:08:13;77.03;;;36.25;;
78322;SDS011;67583;50.616;-3.404;2024-03-08T04:13:04;69.70;;;34.30;;
78322;SDS011;67583;50.616;-3.404;2024-03-08T04:17:56;69.18;;;31.85;;
78322;SDS011;67583;50.616;-3.404;2024-03-08T04:22:47;66.97;;;32.93;;
78322;SDS011;67583;50.616;-3.404;2024-03-08T04:25:14;71.68;;;33.10;;
78322;SDS011;67583;50.616;-3.404;2024-03-08T04:30:05;75.97;;;36.42;;
78322;SDS011;67583;50.616;-3.404;2024-03-08T04:32:34;73.68;;;34.83;;
78322;SDS011;67583;50.616;-3.404;2024-03-08T04:37:28;66.75;;;34.15;;
78322;SDS011;67583;50.616;-3.404;2024-03-08T04:39:56;71.35;;;33.70;;
78322;SDS011;67583;50.616;-3.404;2024-03-08T04:42:22;68.22;;;33.10;;
78322;SDS011;67583;50.616;-3.404;2024-03-08T04:47:13;68.05;;;32.20;;
78322;SDS011;67583;50.616;-3.404;2024-03-08T04:52:04;69.18;;;31.05;;
78322;SDS011;67583;50.616;-3.404;2024-03-08T04:56:55;60.88;;;29.20;;
78322;SDS011;67583;50.616;-3.404;2024-03-08T05:01:46;64.13;;;30.52;;
78322;SDS011;67583;50.616;-3.404;2024-03-08T05:06:37;72.68;;;34.67;;
78322;SDS011;67583;50.616;-3.404;2024-03-08T05:11:39;64.47;;;31.88;;
78322;SDS011;67583;50.616;-3.404;2024-03-08T05:14:05;69.05;;;36.13;;
78322;SDS011;67583;50.616;-3.404;2024-03-08T05:18:56;63.92;;;30.63;;
78322;SDS011;67583;50.616;-3.404;2024-03-08T05:23:47;62.08;;;28.67;;
78322;SDS011;67583;50.616;-3.404;2024-03-08T05:28:38;65.22;;;31.27;;
78322;SDS011;67583;50.616;-3.404;2024-03-08T05:31:04;69.75;;;35.72;;
78322;SDS011;67583;50.616;-3.404;2024-03-08T05:35:55;70.45;;;32.90;;
78322;SDS011;67583;50.616;-3.404;2024-03-08T05:40:46;76.75;;;34.08;;
78322;SDS011;67583;50.616;-3.404;2024-03-08T05:45:37;63.72;;;32.85;;
78322;SDS011;67583;50.616;-3.404;2024-03-08T05:50:28;63.40;;;31.10;;
78322;SDS011;67583;50.616;-3.404;2024-03-08T05:55:18;62.83;;;28.43;;
78322;SDS011;67583;50.616;-3.404;2024-03-08T06:00:09;64.18;;;28.85;;
78322;SDS011;67583;50.616;-3.404;2024-03-08T06:02:40;65.28;;;31.00;;
78322;SDS011;67583;50.616;-3.404;2024-03-08T06:05:12;69.38;;;32.60;;
78322;SDS011;67583;50.616;-3.404;2024-03-08T06:07:37;63.88;;;32.20;;
78322;SDS011;67583;50.616;-3.404;2024-03-08T06:10:05;63.45;;;30.48;;
78322;SDS011;67583;50.616;-3.404;2024-03-08T06:12:35;67.15;;;31.83;;
78322;SDS011;67583;50.616;-3.404;2024-03-08T06:15:05;69.68;;;30.52;;
78322;SDS011;67583;50.616;-3.404;2024-03-08T06:17:31;67.22;;;33.75;;
78322;SDS011;67583;50.616;-3.404;2024-03-08T06:22:22;65.43;;;30.40;;
78322;SDS011;67583;50.616;-3.404;2024-03-08T06:27:12;64.55;;;32.67;;
78322;SDS011;67583;50.616;-3.404;2024-03-08T06:29:39;70.18;;;34.63;;
78322;SDS011;67583;50.616;-3.404;2024-03-08T06:34:32;72.82;;;32.70;;
78322;SDS011;67583;50.616;-3.404;2024-03-08T06:36:59;76.13;;;35.53;;
78322;SDS011;67583;50.616;-3.404;2024-03-08T06:39:26;59.90;;;30.83;;
78322;SDS011;67583;50.616;-3.404;2024-03-08T06:41:52;66.65;;;32.47;;
78322;SDS011;67583;50.616;-3.404;2024-03-08T06:44:17;70.28;;;32.42;;
78322;SDS011;67583;50.616;-3.404;2024-03-08T06:46:42;77.20;;;33.78;;
78322;SDS011;67583;50.616;-3.404;2024-03-08T06:49:08;71.53;;;32.97;;
78322;SDS011;67583;50.616;-3.404;2024-03-08T06:51:35;80.45;;;38.42;;
78322;SDS011;67583;50.616;-3.404;2024-03-08T06:54:01;78.13;;;36.67;;
78322;SDS011;67583;50.616;-3.404;2024-03-08T06:56:26;68.05;;;32.67;;
78322;SDS011;67583;50.616;-3.404;2024-03-08T06:58:52;76.05;;;38.90;;
78322;SDS011;67583;50.616;-3.404;2024-03-08T07:01:17;77.05;;;35.85;;
78322;SDS011;67583;50.616;-3.404;2024-03-08T07:03:42;76.88;;;36.67;;
78322;SDS011;67583;50.616;-3.404;2024-03-08T07:06:10;69.47;;;34.97;;
78322;SDS011;67583;50.616;-3.404;2024-03-08T07:08:35;69.05;;;33.22;;
78322;SDS011;67583;50.616;-3.404;2024-03-08T07:13:26;80.93;;;36.92;;
78322;SDS011;67583;50.616;-3.404;2024-03-08T07:15:53;66.60;;;33.03;;
78322;SDS011;67583;50.616;-3.404;2024-03-08T07:20:44;82.10;;;37.80;;
78322;SDS011;67583;50.616;-3.404;2024-03-08T07:23:09;70.07;;;32.55;;
78322;SDS011;67583;50.616;-3.404;2024-03-08T07:25:35;71.32;;;33.10;;
78322;SDS011;67583;50.616;-3.404;2024-03-08T07:28:01;67.88;;;34.45;;
78322;SDS011;67583;50.616;-3.404;2024-03-08T07:30:26;75.03;;;34.88;;
78322;SDS011;67583;50.616;-3.404;2024-03-08T07:33:10;64.03;;;30.98;;
78322;SDS011;67583;50.616;-3.404;2024-03-08T07:35:39;71.38;;;33.47;;
78322;SDS011;67583;50.616;-3.404;2024-03-08T07:38:05;70.28;;;34.42;;
78322;SDS011;67583;50.616;-3.404;2024-03-08T07:40:35;59.20;;;30.75;;
78322;SDS011;67583;50.616;-3.404;2024-03-08T07:43:01;64.45;;;34.05;;
78322;SDS011;67583;50.616;-3.404;2024-03-08T07:47:53;64.05;;;28.88;;
78322;SDS011;67583;50.616;-3.404;2024-03-08T07:50:18;60.25;;;28.55;;
78322;SDS011;67583;50.616;-3.404;2024-03-08T07:52:44;67.00;;;34.08;;
78322;SDS011;67583;50.616;-3.404;2024-03-08T07:55:10;70.28;;;33.65;;
78322;SDS011;67583;50.616;-3.404;2024-03-08T07:57:35;62.35;;;33.60;;
78322;SDS011;67583;50.616;-3.404;2024-03-08T08:00:03;60.13;;;30.02;;
78322;SDS011;67583;50.616;-3.404;2024-03-08T08:02:32;53.80;;;28.88;;
78322;SDS011;67583;50.616;-3.404;2024-03-08T08:07:24;57.58;;;28.60;;
78322;SDS011;67583;50.616;-3.404;2024-03-08T08:12:14;60.80;;;29.65;;
78322;SDS011;67583;50.616;-3.404;2024-03-08T08:14:41;57.88;;;27.98;;
78322;SDS011;67583;50.616;-3.404;2024-03-08T08:19:33;54.10;;;27.98;;
78322;SDS011;67583;50.616;-3.404;2024-03-08T08:22:00;57.55;;;30.33;;
78322;SDS011;67583;50.616;-3.404;2024-03-08T08:24:28;63.42;;;30.52;;
78322;SDS011;67583;50.616;-3.404;2024-03-08T08:29:19;55.60;;;26.63;;
78322;SDS011;67583;50.616;-3.404;2024-03-08T08:34:11;49.63;;;27.50;;
78322;SDS011;67583;50.616;-3.404;2024-03-08T08:39:02;51.47;;;27.35;;
78322;SDS011;67583;50.616;-3.404;2024-03-08T08:43:54;55.03;;;26.27;;
78322;SDS011;67583;50.616;-3.404;2024-03-08T08:46:20;62.03;;;28.25;;
78322;SDS011;67583;50.616;-3.404;2024-03-08T08:48:46;55.10;;;29.83;;
78322;SDS011;67583;50.616;-3.404;2024-03-08T08:51:12;53.63;;;26.30;;
78322;SDS011;67583;50.616;-3.404;2024-03-08T08:56:07;43.95;;;22.80;;
78322;SDS011;67583;50.616;-3.404;2024-03-08T08:58:38;57.35;;;26.88;;
78322;SDS011;67583;50.616;-3.404;2024-03-08T09:01:07;75.50;;;31.23;;
78322;SDS011;67583;50.616;-3.404;2024-03-08T09:03:36;51.53;;;27.50;;
78322;SDS011;67583;50.616;-3.404;2024-03-08T09:06:03;56.97;;;28.05;;
78322;SDS011;67583;50.616;-3.404;2024-03-08T09:08:29;59.85;;;28.60;;
78322;SDS011;67583;50.616;-3.404;2024-03-08T09:10:54;49.88;;;26.77;;
78322;SDS011;67583;50.616;-3.404;2024-03-08T09:13:20;51.90;;;27.48;;
78322;SDS011;67583;50.616;-3.404;2024-03-08T09:15:45;55.50;;;29.13;;
78322;SDS011;67583;50.616;-3.404;2024-03-08T09:18:11;47.05;;;26.25;;
78322;SDS011;67583;50.616;-3.404;2024-03-08T09:20:36;47.08;;;25.27;;
78322;SDS011;67583;50.616;-3.404;2024-03-08T09:23:02;44.60;;;23.85;;
78322;SDS011;67583;50.616;-3.404;2024-03-08T09:25:29;46.90;;;24.98;;
78322;SDS011;67583;50.616;-3.404;2024-03-08T09:27:54;47.50;;;27.08;;
78322;SDS011;67583;50.616;-3.404;2024-03-08T09:30:20;52.53;;;26.67;;
78322;SDS011;67583;50.616;-3.404;2024-03-08T09:32:46;43.58;;;24.65;;
78322;SDS011;67583;50.616;-3.404;2024-03-08T09:35:12;49.22;;;22.60;;
78322;SDS011;67583;50.616;-3.404;2024-03-08T09:37:37;45.38;;;25.35;;
78322;SDS011;67583;50.616;-3.404;2024-03-08T09:40:03;50.10;;;25.90;;
78322;SDS011;67583;50.616;-3.404;2024-03-08T09:42:34;51.03;;;26.92;;
78322;SDS011;67583;50.616;-3.404;2024-03-08T09:45:04;50.40;;;25.52;;
78322;SDS011;67583;50.616;-3.404;2024-03-08T09:47:35;58.53;;;27.33;;
78322;SDS011;67583;50.616;-3.404;2024-03-08T09:50:04;51.13;;;25.92;;
78322;SDS011;67583;50.616;-3.404;2024-03-08T09:52:34;62.95;;;28.63;;
78322;SDS011;67583;50.616;-3.404;2024-03-08T09:55:03;62.53;;;28.48;;
78322;SDS011;67583;50.616;-3.404;2024-03-08T09:57:31;56.30;;;28.70;;
78322;SDS011;67583;50.616;-3.404;2024-03-08T10:00:00;49.35;;;25.60;;
78322;SDS011;67583;50.616;-3.404;2024-03-08T10:02:26;52.83;;;26.73;;
78322;SDS011;67583;50.616;-3.404;2024-03-08T10:04:51;51.03;;;28.77;;
78322;SDS011;67583;50.616;-3.404;2024-03-08T10:07:18;69.53;;;32.63;;
78322;SDS011;67583;50.616;-3.404;2024-03-08T10:09:44;59.00;;;30.20;;
78322;SDS011;67583;50.616;-3.404;2024-03-08T10:12:15;49.17;;;27.67;;
78322;SDS011;67583;50.616;-3.404;2024-03-08T10:14:44;55.70;;;28.88;;
78322;SDS011;67583;50.616;-3.404;2024-03-08T10:17:11;51.35;;;28.80;;
78322;SDS011;67583;50.616;-3.404;2024-03-08T10:19:36;51.22;;;25.85;;
78322;SDS011;67583;50.616;-3.404;2024-03-08T10:22:01;58.67;;;31.40;;
78322;SDS011;67583;50.616;-3.404;2024-03-08T10:24:29;68.20;;;32.15;;
78322;SDS011;67583;50.616;-3.404;2024-03-08T10:26:59;53.10;;;30.80;;
78322;SDS011;67583;50.616;-3.404;2024-03-08T10:29:26;50.05;;;27.10;;
78322;SDS011;67583;50.616;-3.404;2024-03-08T10:31:53;90.85;;;38.63;;
78322;SDS011;67583;50.616;-3.404;2024-03-08T10:34:18;65.03;;;32.50;;
78322;SDS011;67583;50.616;-3.404;2024-03-08T10:36:44;53.28;;;28.42;;
78322;SDS011;67583;50.616;-3.404;2024-03-08T10:39:24;62.95;;;31.88;;
78322;SDS011;67583;50.616;-3.404;2024-03-08T10:47:15;48.42;;;26.00;;
78322;SDS011;67583;50.616;-3.404;2024-03-08T10:49:50;45.83;;;24.00;;
78322;SDS011;67583;50.616;-3.404;2024-03-08T10:52:20;53.95;;;25.67;;
78322;SDS011;67583;50.616;-3.404;2024-03-08T10:54:45;47.17;;;26.02;;
78322;SDS011;67583;50.616;-3.404;2024-03-08T10:57:16;46.20;;;24.98;;
78322;SDS011;67583;50.616;-3.404;2024-03-08T10:59:42;44.13;;;25.38;;
78322;SDS011;67583;50.616;-3.404;2024-03-08T11:02:10;48.00;;;25.15;;
78322;SDS011;67583;50.616;-3.404;2024-03-08T11:04:37;44.97;;;24.55;;
78322;SDS011;67583;50.616;-3.404;2024-03-08T11:07:02;46.17;;;22.85;;
78322;SDS011;67583;50.616;-3.404;2024-03-08T11:09:32;45.78;;;25.20;;
78322;SDS011;67583;50.616;-3.404;2024-03-08T11:14:50;48.75;;;25.95;;
78322;SDS011;67583;50.616;-3.404;2024-03-08T11:17:39;50.95;;;27.55;;
78322;SDS011;67583;50.616;-3.404;2024-03-08T11:20:13;44.50;;;24.35;;
78322;SDS011;67583;50.616;-3.404;2024-03-08T11:22:49;41.67;;;23.08;;
78322;SDS011;67583;50.616;-3.404;2024-03-08T11:25:33;38.72;;;21.48;;
78322;SDS011;67583;50.616;-3.404;2024-03-08T11:30:41;42.88;;;21.95;;
78322;SDS011;67583;50.616;-3.404;2024-03-08T11:33:10;41.95;;;22.67;;
78322;SDS011;67583;50.616;-3.404;2024-03-08T11:35:37;35.20;;;18.42;;
78322;SDS011;67583;50.616;-3.404;2024-03-08T11:38:03;42.28;;;22.75;;
78322;SDS011;67583;50.616;-3.404;2024-03-08T11:40:29;44.80;;;20.95;;
78322;SDS011;67583;50.616;-3.404;2024-03-08T11:42:54;42.20;;;22.50;;
78322;SDS011;67583;50.616;-3.404;2024-03-08T11:45:20;42.70;;;21.08;;
78322;SDS011;67583;50.616;-3.404;2024-03-08T11:47:48;34.72;;;21.27;;
78322;SDS011;67583;50.616;-3.404;2024-03-08T11:50:14;37.72;;;21.58;;
78322;SDS011;67583;50.616;-3.404;2024-03-08T11:52:40;43.40;;;23.77;;
78322;SDS011;67583;50.616;-3.404;2024-03-08T11:55:08;39.45;;;20.63;;
78322;SDS011;67583;50.616;-3.404;2024-03-08T11:57:33;36.05;;;18.67;;
78322;SDS011;67583;50.616;-3.404;2024-03-08T11:59:59;37.92;;;21.63;;
78322;SDS011;67583;50.616;-3.404;2024-03-08T12:02:34;36.55;;;20.20;;
78322;SDS011;67583;50.616;-3.404;2024-03-08T12:05:03;34.88;;;19.63;;
78322;SDS011;67583;50.616;-3.404;2024-03-08T12:07:29;41.97;;;20.60;;
78322;SDS011;67583;50.616;-3.404;2024-03-08T12:10:30;42.95;;;21.45;;
78322;SDS011;67583;50.616;-3.404;2024-03-08T12:12:51;39.95;;;20.45;;
78322;SDS011;67583;50.616;-3.404;2024-03-08T12:15:18;43.45;;;20.98;;
78322;SDS011;67583;50.616;-3.404;2024-03-08T12:17:45;41.85;;;22.27;;
78322;SDS011;67583;50.616;-3.404;2024-03-08T12:20:17;33.60;;;19.77;;
78322;SDS011;67583;50.616;-3.404;2024-03-08T12:22:44;35.97;;;21.38;;
78322;SDS011;67583;50.616;-3.404;2024-03-08T12:25:13;45.13;;;22.02;;
78322;SDS011;67583;50.616;-3.404;2024-03-08T12:27:42;44.97;;;22.05;;
78322;SDS011;67583;50.616;-3.404;2024-03-08T12:31:11;45.05;;;21.48;;
78322;SDS011;67583;50.616;-3.404;2024-03-08T12:33:20;45.03;;;21.23;;
78322;SDS011;67583;50.616;-3.404;2024-03-08T12:35:50;40.38;;;20.55;;
78322;SDS011;67583;50.616;-3.404;2024-03-08T12:38:20;41.88;;;20.60;;
78322;SDS011;67583;50.616;-3.404;2024-03-08T12:40:54;41.15;;;19.58;;
78322;SDS011;67583;50.616;-3.404;2024-03-08T12:43:21;39.03;;;21.55;;
78322;SDS011;67583;50.616;-3.404;2024-03-08T12:45:47;48.90;;;21.45;;
78322;SDS011;67583;50.616;-3.404;2024-03-08T12:48:12;46.00;;;22.58;;
78322;SDS011;67583;50.616;-3.404;2024-03-08T12:50:42;37.58;;;20.75;;
78322;SDS011;67583;50.616;-3.404;2024-03-08T12:53:12;39.03;;;22.15;;
78322;SDS011;67583;50.616;-3.404;2024-03-08T12:55:39;38.08;;;21.80;;
78322;SDS011;67583;50.616;-3.404;2024-03-08T12:58:05;38.13;;;20.65;;
78322;SDS011;67583;50.616;-3.404;2024-03-08T13:00:32;45.25;;;22.02;;
78322;SDS011;67583;50.616;-3.404;2024-03-08T13:03:01;33.80;;;20.20;;
78322;SDS011;67583;50.616;-3.404;2024-03-08T13:05:26;40.67;;;21.88;;
78322;SDS011;67583;50.616;-3.404;2024-03-08T13:07:52;38.28;;;19.77;;
78322;SDS011;67583;50.616;-3.404;2024-03-08T13:10:20;35.33;;;21.60;;
78322;SDS011;67583;50.616;-3.404;2024-03-08T13:12:45;34.78;;;19.05;;
78322;SDS011;67583;50.616;-3.404;2024-03-08T13:15:11;36.95;;;19.00;;
78322;SDS011;67583;50.616;-3.404;2024-03-08T13:17:40;36.25;;;20.33;;
78322;SDS011;67583;50.616;-3.404;2024-03-08T13:20:07;39.50;;;21.27;;
78322;SDS011;67583;50.616;-3.404;2024-03-08T13:22:41;38.85;;;19.73;;
78322;SDS011;67583;50.616;-3.404;2024-03-08T13:25:06;34.53;;;19.70;;
78322;SDS011;67583;50.616;-3.404;2024-03-08T13:27:39;37.38;;;18.27;;
78322;SDS011;67583;50.616;-3.404;2024-03-08T13:30:14;38.28;;;18.98;;
78322;SDS011;67583;50.616;-3.404;2024-03-08T13:32:43;38.38;;;18.63;;
78322;SDS011;67583;50.616;-3.404;2024-03-08T13:35:09;36.72;;;20.70;;
78322;SDS011;67583;50.616;-3.404;2024-03-08T13:37:40;41.33;;;20.40;;
78322;SDS011;67583;50.616;-3.404;2024-03-08T13:40:07;32.85;;;19.17;;
78322;SDS011;67583;50.616;-3.404;2024-03-08T13:42:36;32.33;;;18.00;;
78322;SDS011;67583;50.616;-3.404;2024-03-08T13:45:03;34.55;;;18.05;;
78322;SDS011;67583;50.616;-3.404;2024-03-08T13:47:32;38.00;;;18.80;;
78322;SDS011;67583;50.616;-3.404;2024-03-08T13:49:57;34.25;;;17.83;;
78322;SDS011;67583;50.616;-3.404;2024-03-08T13:52:23;33.97;;;19.02;;
78322;SDS011;67583;50.616;-3.404;2024-03-08T13:54:50;37.75;;;18.67;;
78322;SDS011;67583;50.616;-3.404;2024-03-08T13:57:16;37.60;;;19.00;;
78322;SDS011;67583;50.616;-3.404;2024-03-08T13:59:42;32.40;;;17.25;;
78322;SDS011;67583;50.616;-3.404;2024-03-08T14:02:07;33.35;;;17.73;;
78322;SDS011;67583;50.616;-3.404;2024-03-08T14:04:38;32.90;;;18.05;;
78322;SDS011;67583;50.616;-3.404;2024-03-08T14:07:04;34.83;;;18.73;;
78322;SDS011;67583;50.616;-3.404;2024-03-08T14:09:33;29.83;;;16.38;;
78322;SDS011;67583;50.616;-3.404;2024-03-08T14:12:02;36.80;;;18.35;;
78322;SDS011;67583;50.616;-3.404;2024-03-08T14:14:32;38.58;;;18.20;;
78322;SDS011;67583;50.616;-3.404;2024-03-08T14:17:00;35.22;;;17.73;;
78322;SDS011;67583;50.616;-3.404;2024-03-08T14:19:26;35.65;;;18.40;;
78322;SDS011;67583;50.616;-3.404;2024-03-08T14:21:52;36.13;;;17.33;;
78322;SDS011;67583;50.616;-3.404;2024-03-08T14:24:18;30.40;;;17.35;;
78322;SDS011;67583;50.616;-3.404;2024-03-08T14:26:44;32.58;;;16.55;;
78322;SDS011;67583;50.616;-3.404;2024-03-08T14:29:10;38.80;;;17.50;;
78322;SDS011;67583;50.616;-3.404;2024-03-08T14:31:36;36.28;;;17.50;;
78322;SDS011;67583;50.616;-3.404;2024-03-08T14:34:02;32.35;;;16.98;;
78322;SDS011;67583;50.616;-3.404;2024-03-08T14:36:28;30.02;;;16.85;;
78322;SDS011;67583;50.616;-3.404;2024-03-08T14:38:54;32.90;;;17.15;;
78322;SDS011;67583;50.616;-3.404;2024-03-08T14:41:19;31.65;;;17.58;;
78322;SDS011;67583;50.616;-3.404;2024-03-08T14:43:45;31.58;;;16.20;;
78322;SDS011;67583;50.616;-3.404;2024-03-08T14:46:11;31.83;;;16.02;;
78322;SDS011;67583;50.616;-3.404;2024-03-08T14:48:45;29.52;;;14.27;;
78322;SDS011;67583;50.616;-3.404;2024-03-08T14:51:13;35.13;;;16.23;;
78322;SDS011;67583;50.616;-3.404;2024-03-08T14:53:42;27.23;;;16.30;;
78322;SDS011;67583;50.616;-3.404;2024-03-08T14:56:10;29.25;;;15.10;;
78322;SDS011;67583;50.616;-3.404;2024-03-08T14:58:37;30.90;;;16.05;;
78322;SDS011;67583;50.616;-3.404;2024-03-08T15:01:03;27.27;;;16.58;;
78322;SDS011;67583;50.616;-3.404;2024-03-08T15:03:32;27.25;;;15.10;;
78322;SDS011;67583;50.616;-3.404;2024-03-08T15:05:57;24.63;;;13.70;;
78322;SDS011;67583;50.616;-3.404;2024-03-08T15:08:23;32.38;;;15.25;;
78322;SDS011;67583;50.616;-3.404;2024-03-08T15:10:49;30.55;;;13.70;;
78322;SDS011;67583;50.616;-3.404;2024-03-08T15:13:19;30.85;;;14.35;;
78322;SDS011;67583;50.616;-3.404;2024-03-08T15:15:52;28.85;;;14.70;;
78322;SDS011;67583;50.616;-3.404;2024-03-08T15:18:23;179.13;;;102.03;;
78322;SDS011;67583;50.616;-3.404;2024-03-08T15:20:51;31.77;;;15.68;;
78322;SDS011;67583;50.616;-3.404;2024-03-08T15:23:20;35.00;;;16.63;;
78322;SDS011;67583;50.616;-3.404;2024-03-08T15:25:46;39.05;;;17.33;;
78322;SDS011;67583;50.616;-3.404;2024-03-08T15:28:14;30.88;;;14.55;;
78322;SDS011;67583;50.616;-3.404;2024-03-08T15:30:45;27.77;;;15.75;;
78322;SDS011;67583;50.616;-3.404;2024-03-08T15:33:16;27.83;;;14.00;;
78322;SDS011;67583;50.616;-3.404;2024-03-08T15:35:49;26.08;;;14.20;;
78322;SDS011;67583;50.616;-3.404;2024-03-08T15:38:22;33.38;;;15.50;;
78322;SDS011;67583;50.616;-3.404;2024-03-08T15:40:47;29.13;;;14.18;;
78322;SDS011;67583;50.616;-3.404;2024-03-08T15:43:16;27.58;;;13.13;;
78322;SDS011;67583;50.616;-3.404;2024-03-08T15:45:44;25.83;;;14.13;;
78322;SDS011;67583;50.616;-3.404;2024-03-08T15:48:10;27.30;;;13.48;;
78322;SDS011;67583;50.616;-3.404;2024-03-08T15:50:36;27.90;;;14.55;;
78322;SDS011;67583;50.616;-3.404;2024-03-08T15:53:01;28.95;;;14.45;;
78322;SDS011;67583;50.616;-3.404;2024-03-08T15:55:27;29.63;;;15.45;;
78322;SDS011;67583;50.616;-3.404;2024-03-08T15:57:54;27.55;;;13.82;;
78322;SDS011;67583;50.616;-3.404;2024-03-08T16:00:20;24.25;;;13.60;;
78322;SDS011;67583;50.616;-3.404;2024-03-08T16:03:02;33.28;;;14.75;;
78322;SDS011;67583;50.616;-3.404;2024-03-08T16:05:32;26.23;;;13.73;;
78322;SDS011;67583;50.616;-3.404;2024-03-08T16:07:58;29.60;;;14.35;;
78322;SDS011;67583;50.616;-3.404;2024-03-08T16:10:24;36.53;;;15.00;;
78322;SDS011;67583;50.616;-3.404;2024-03-08T16:12:50;28.48;;;13.82;;
78322;SDS011;67583;50.616;-3.404;2024-03-08T16:15:16;30.65;;;13.82;;
78322;SDS011;67583;50.616;-3.404;2024-03-08T16:17:42;32.47;;;14.82;;
78322;SDS011;67583;50.616;-3.404;2024-03-08T16:20:08;26.33;;;13.85;;
78322;SDS011;67583;50.616;-3.404;2024-03-08T16:22:37;27.25;;;14.40;;
78322;SDS011;67583;50.616;-3.404;2024-03-08T16:25:04;27.33;;;14.43;;
78322;SDS011;67583;50.616;-3.404;2024-03-08T16:27:30;30.63;;;15.55;;
78322;SDS011;67583;50.616;-3.404;2024-03-08T16:29:57;24.08;;;13.38;;
78322;SDS011;67583;50.616;-3.404;2024-03-08T16:32:22;28.25;;;13.10;;
78322;SDS011;67583;50.616;-3.404;2024-03-08T16:34:48;34.28;;;16.45;;
78322;SDS011;67583;50.616;-3.404;2024-03-08T16:37:13;27.77;;;14.90;;
78322;SDS011;67583;50.616;-3.404;2024-03-08T16:39:38;26.50;;;14.13;;
78322;SDS011;67583;50.616;-3.404;2024-03-08T16:42:04;27.27;;;14.82;;
78322;SDS011;67583;50.616;-3.404;2024-03-08T16:44:32;27.05;;;13.77;;
78322;SDS011;67583;50.616;-3.404;2024-03-08T16:47:01;29.27;;;14.20;;
78322;SDS011;67583;50.616;-3.404;2024-03-08T16:49:27;29.05;;;14.77;;
78322;SDS011;67583;50.616;-3.404;2024-03-08T16:51:55;30.05;;;14.90;;
78322;SDS011;67583;50.616;-3.404;2024-03-08T16:54:21;33.45;;;14.85;;